EGPN - Dundee-Riverside
Distance from station: E 5mi, 14km
Updated: 12/14/2017 8:20am
Nearby fog, Few clouds
Nearby fog, Few clouds
 Wind from W
Wind: W 5 mph , 7 km/h
Temperature: 32°F , 0°C
Wind Chill: 27°F , -3°C
Dew Point: 32°F , 0°C
Humidity: 100%
Barometer: 28.94 inHg , 980 hPa
Summary: Nearby Fog
Clouds: Few Clouds
Visibility: 6 miles , 10 km
Cloud details: Few Clouds 300 ft
2017/12/14 16:20 EGPN 141620Z 28004KT 250V310 9999 VCFG FEW003 00/M00 Q0980